Clontarf, Minnesota
Current Conditions -  °F | °C
As of 7:34 AM on Thursday 30 Oct 2014 (Local Time) from KBBB Reporting Station
Scattered Clouds Scattered Clouds  
Wind Chill: 37°   Ceiling: Unl
Heat Index: 37°   Visibility: 7mi
Dew Point: 36°   Wind: 0mph
Humidity: 93%   Direction: NA
Pressure: 30.03"   Gusts: NA
Location:  45.38°N, 95.68°W
Report Text: KBBB 301234Z AUTO 00000KT 7SM SCT050 SCT070 03/02 A3003 RMK AO2
Loading
Personal Weather Stations






























Interactive Weather Map
Tropical Storm Tracking
New forecast layout! Learn more

10-Day Weather Forecast

Advertisements
Track Severe Weather on mobile